sensor_id;sensor_type;location;lat;lon;timestamp;temperature;humidity
22173;DHT22;11252;50.596;17.648;2023-02-01T00:01:05;4.10;92.20
22173;DHT22;11252;50.596;17.648;2023-02-01T00:03:33;4.20;92.20
22173;DHT22;11252;50.596;17.648;2023-02-01T00:06:00;4.20;92.20
22173;DHT22;11252;50.596;17.648;2023-02-01T00:08:28;4.30;92.20
22173;DHT22;11252;50.596;17.648;2023-02-01T00:11:07;4.30;92.20
22173;DHT22;11252;50.596;17.648;2023-02-01T00:13:37;4.20;92.20
22173;DHT22;11252;50.596;17.648;2023-02-01T00:16:13;4.10;92.20
22173;DHT22;11252;50.596;17.648;2023-02-01T00:18:44;4.00;92.20
22173;DHT22;11252;50.596;17.648;2023-02-01T00:21:13;3.90;92.20
22173;DHT22;11252;50.596;17.648;2023-02-01T00:23:40;3.90;92.20
22173;DHT22;11252;50.596;17.648;2023-02-01T00:26:35;3.80;92.20
22173;DHT22;11252;50.596;17.648;2023-02-01T00:29:01;3.80;92.20
22173;DHT22;11252;50.596;17.648;2023-02-01T00:31:30;3.20;92.20
22173;DHT22;11252;50.596;17.648;2023-02-01T00:33:57;2.80;92.20
22173;DHT22;11252;50.596;17.648;2023-02-01T00:36:25;2.50;92.20
22173;DHT22;11252;50.596;17.648;2023-02-01T00:38:52;2.30;92.20
22173;DHT22;11252;50.596;17.648;2023-02-01T00:41:21;2.10;92.20
22173;DHT22;11252;50.596;17.648;2023-02-01T00:43:49;1.90;92.20
22173;DHT22;11252;50.596;17.648;2023-02-01T00:46:18;1.70;92.20
22173;DHT22;11252;50.596;17.648;2023-02-01T00:48:46;1.60;92.20
22173;DHT22;11252;50.596;17.648;2023-02-01T00:51:18;1.50;92.20
22173;DHT22;11252;50.596;17.648;2023-02-01T00:53:45;1.50;92.20
22173;DHT22;11252;50.596;17.648;2023-02-01T00:56:13;1.50;92.20
22173;DHT22;11252;50.596;17.648;2023-02-01T00:58:40;1.50;92.20
22173;DHT22;11252;50.596;17.648;2023-02-01T01:01:17;1.40;92.20
22173;DHT22;11252;50.596;17.648;2023-02-01T01:03:47;1.40;92.20
22173;DHT22;11252;50.596;17.648;2023-02-01T01:06:16;1.40;92.20
22173;DHT22;11252;50.596;17.648;2023-02-01T01:08:44;1.50;92.20
22173;DHT22;11252;50.596;17.648;2023-02-01T01:11:15;1.50;92.20
22173;DHT22;11252;50.596;17.648;2023-02-01T01:13:43;1.50;92.20
22173;DHT22;11252;50.596;17.648;2023-02-01T01:16:11;1.60;92.20
22173;DHT22;11252;50.596;17.648;2023-02-01T01:18:38;1.60;92.20
22173;DHT22;11252;50.596;17.648;2023-02-01T01:21:07;1.60;92.20
22173;DHT22;11252;50.596;17.648;2023-02-01T01:23:35;1.60;92.20
22173;DHT22;11252;50.596;17.648;2023-02-01T01:26:26;1.60;92.20
22173;DHT22;11252;50.596;17.648;2023-02-01T01:28:58;1.60;92.20
22173;DHT22;11252;50.596;17.648;2023-02-01T01:31:26;1.50;92.20
22173;DHT22;11252;50.596;17.648;2023-02-01T01:33:56;1.60;92.20
22173;DHT22;11252;50.596;17.648;2023-02-01T01:36:24;1.60;92.20
22173;DHT22;11252;50.596;17.648;2023-02-01T01:38:52;1.60;92.20
22173;DHT22;11252;50.596;17.648;2023-02-01T01:41:26;1.60;92.20
22173;DHT22;11252;50.596;17.648;2023-02-01T01:44:04;1.60;92.20
22173;DHT22;11252;50.596;17.648;2023-02-01T01:46:35;1.60;92.20
22173;DHT22;11252;50.596;17.648;2023-02-01T01:49:14;1.60;92.20
22173;DHT22;11252;50.596;17.648;2023-02-01T01:51:51;1.70;92.20
22173;DHT22;11252;50.596;17.648;2023-02-01T01:54:37;1.70;92.20
22173;DHT22;11252;50.596;17.648;2023-02-01T01:57:12;1.70;92.20
22173;DHT22;11252;50.596;17.648;2023-02-01T01:59:43;1.70;92.20
22173;DHT22;11252;50.596;17.648;2023-02-01T02:02:13;1.90;92.20
22173;DHT22;11252;50.596;17.648;2023-02-01T02:04:40;1.90;92.20
22173;DHT22;11252;50.596;17.648;2023-02-01T02:07:13;1.90;92.20
22173;DHT22;11252;50.596;17.648;2023-02-01T02:09:41;2.00;92.20
22173;DHT22;11252;50.596;17.648;2023-02-01T02:12:25;2.00;92.20
22173;DHT22;11252;50.596;17.648;2023-02-01T02:14:53;2.10;92.20
22173;DHT22;11252;50.596;17.648;2023-02-01T02:37:22;2.30;92.20
22173;DHT22;11252;50.596;17.648;2023-02-01T02:46:26;2.30;92.20
22173;DHT22;11252;50.596;17.648;2023-02-01T02:51:53;2.20;92.20
22173;DHT22;11252;50.596;17.648;2023-02-01T02:54:43;2.30;92.20
22173;DHT22;11252;50.596;17.648;2023-02-01T02:57:21;2.20;92.20
22173;DHT22;11252;50.596;17.648;2023-02-01T03:00:12;2.10;92.20
22173;DHT22;11252;50.596;17.648;2023-02-01T03:03:00;2.00;92.20
22173;DHT22;11252;50.596;17.648;2023-02-01T03:05:48;2.00;92.20
22173;DHT22;11252;50.596;17.648;2023-02-01T03:08:27;2.00;92.20
22173;DHT22;11252;50.596;17.648;2023-02-01T03:11:05;2.00;92.20
22173;DHT22;11252;50.596;17.648;2023-02-01T03:13:53;2.10;92.20
22173;DHT22;11252;50.596;17.648;2023-02-01T03:16:31;2.30;92.20
22173;DHT22;11252;50.596;17.648;2023-02-01T03:21:40;2.40;92.20
22173;DHT22;11252;50.596;17.648;2023-02-01T03:26:42;2.70;92.20
22173;DHT22;11252;50.596;17.648;2023-02-01T03:29:21;2.70;92.20
22173;DHT22;11252;50.596;17.648;2023-02-01T03:31:50;2.60;92.20
22173;DHT22;11252;50.596;17.648;2023-02-01T03:34:17;2.70;92.20
22173;DHT22;11252;50.596;17.648;2023-02-01T03:36:57;2.70;92.20
22173;DHT22;11252;50.596;17.648;2023-02-01T03:39:33;2.80;92.20
22173;DHT22;11252;50.596;17.648;2023-02-01T03:42:21;2.70;92.20
22173;DHT22;11252;50.596;17.648;2023-02-01T03:47:43;2.60;92.20
22173;DHT22;11252;50.596;17.648;2023-02-01T03:50:15;2.70;92.20
22173;DHT22;11252;50.596;17.648;2023-02-01T03:52:51;2.80;92.20
22173;DHT22;11252;50.596;17.648;2023-02-01T03:55:22;2.90;92.20
22173;DHT22;11252;50.596;17.648;2023-02-01T03:57:56;2.90;92.20
22173;DHT22;11252;50.596;17.648;2023-02-01T04:00:26;2.90;92.20
22173;DHT22;11252;50.596;17.648;2023-02-01T04:02:54;3.00;92.20
22173;DHT22;11252;50.596;17.648;2023-02-01T04:05:21;2.90;92.20
22173;DHT22;11252;50.596;17.648;2023-02-01T04:07:49;2.90;92.20
22173;DHT22;11252;50.596;17.648;2023-02-01T04:10:16;2.90;92.20
22173;DHT22;11252;50.596;17.648;2023-02-01T04:12:45;2.90;92.20
22173;DHT22;11252;50.596;17.648;2023-02-01T04:15:13;2.90;92.20
22173;DHT22;11252;50.596;17.648;2023-02-01T04:17:40;2.90;92.20
22173;DHT22;11252;50.596;17.648;2023-02-01T04:20:08;3.00;92.20
22173;DHT22;11252;50.596;17.648;2023-02-01T04:22:36;2.90;92.20
22173;DHT22;11252;50.596;17.648;2023-02-01T04:25:03;2.90;92.20
22173;DHT22;11252;50.596;17.648;2023-02-01T04:27:32;2.90;92.20
22173;DHT22;11252;50.596;17.648;2023-02-01T04:30:00;3.10;92.20
22173;DHT22;11252;50.596;17.648;2023-02-01T04:32:27;3.10;92.20
22173;DHT22;11252;50.596;17.648;2023-02-01T04:34:54;3.30;92.20
22173;DHT22;11252;50.596;17.648;2023-02-01T04:37:21;3.30;92.20
22173;DHT22;11252;50.596;17.648;2023-02-01T04:39:49;3.20;92.20
22173;DHT22;11252;50.596;17.648;2023-02-01T04:42:16;3.40;92.20
22173;DHT22;11252;50.596;17.648;2023-02-01T04:44:43;3.40;92.20
22173;DHT22;11252;50.596;17.648;2023-02-01T04:47:10;3.30;92.20
22173;DHT22;11252;50.596;17.648;2023-02-01T04:49:37;3.20;92.20
22173;DHT22;11252;50.596;17.648;2023-02-01T04:52:05;3.10;92.20
22173;DHT22;11252;50.596;17.648;2023-02-01T04:54:32;3.10;92.20
22173;DHT22;11252;50.596;17.648;2023-02-01T04:56:59;3.10;92.20
22173;DHT22;11252;50.596;17.648;2023-02-01T04:59:28;3.10;92.20
22173;DHT22;11252;50.596;17.648;2023-02-01T05:01:55;3.10;92.20
22173;DHT22;11252;50.596;17.648;2023-02-01T05:04:22;3.10;92.20
22173;DHT22;11252;50.596;17.648;2023-02-01T05:06:50;3.10;92.20
22173;DHT22;11252;50.596;17.648;2023-02-01T05:09:17;3.10;92.20
22173;DHT22;11252;50.596;17.648;2023-02-01T05:11:44;3.10;92.20
22173;DHT22;11252;50.596;17.648;2023-02-01T05:14:30;3.00;92.20
22173;DHT22;11252;50.596;17.648;2023-02-01T05:16:57;3.00;92.20
22173;DHT22;11252;50.596;17.648;2023-02-01T05:19:25;3.00;92.20
22173;DHT22;11252;50.596;17.648;2023-02-01T05:21:52;3.00;92.20
22173;DHT22;11252;50.596;17.648;2023-02-01T05:24:19;3.00;92.20
22173;DHT22;11252;50.596;17.648;2023-02-01T05:26:48;3.10;92.20
22173;DHT22;11252;50.596;17.648;2023-02-01T05:29:16;3.10;92.20
22173;DHT22;11252;50.596;17.648;2023-02-01T05:31:45;3.10;92.20
22173;DHT22;11252;50.596;17.648;2023-02-01T05:34:14;3.00;92.20
22173;DHT22;11252;50.596;17.648;2023-02-01T05:36:41;3.00;92.20
22173;DHT22;11252;50.596;17.648;2023-02-01T05:39:09;3.00;92.20
22173;DHT22;11252;50.596;17.648;2023-02-01T05:41:37;3.00;92.20
22173;DHT22;11252;50.596;17.648;2023-02-01T05:44:04;3.10;92.20
22173;DHT22;11252;50.596;17.648;2023-02-01T05:46:37;3.10;92.20
22173;DHT22;11252;50.596;17.648;2023-02-01T05:49:04;3.00;92.20
22173;DHT22;11252;50.596;17.648;2023-02-01T05:51:32;3.00;92.20
22173;DHT22;11252;50.596;17.648;2023-02-01T05:54:00;3.00;92.20
22173;DHT22;11252;50.596;17.648;2023-02-01T05:56:27;3.10;92.20
22173;DHT22;11252;50.596;17.648;2023-02-01T05:58:54;3.10;92.20
22173;DHT22;11252;50.596;17.648;2023-02-01T06:01:22;3.10;92.20
22173;DHT22;11252;50.596;17.648;2023-02-01T06:03:49;3.20;92.20
22173;DHT22;11252;50.596;17.648;2023-02-01T06:06:16;3.10;92.20
22173;DHT22;11252;50.596;17.648;2023-02-01T06:08:46;3.20;92.20
22173;DHT22;11252;50.596;17.648;2023-02-01T06:11:13;3.20;92.20
22173;DHT22;11252;50.596;17.648;2023-02-01T06:13:57;3.20;92.20
22173;DHT22;11252;50.596;17.648;2023-02-01T06:16:25;3.20;92.20
22173;DHT22;11252;50.596;17.648;2023-02-01T06:18:52;3.10;92.20
22173;DHT22;11252;50.596;17.648;2023-02-01T06:21:19;3.20;92.20
22173;DHT22;11252;50.596;17.648;2023-02-01T06:23:51;3.30;92.20
22173;DHT22;11252;50.596;17.648;2023-02-01T06:26:19;3.30;92.20
22173;DHT22;11252;50.596;17.648;2023-02-01T06:28:46;3.40;92.20
22173;DHT22;11252;50.596;17.648;2023-02-01T06:31:14;3.50;92.20
22173;DHT22;11252;50.596;17.648;2023-02-01T06:33:42;3.50;92.20
22173;DHT22;11252;50.596;17.648;2023-02-01T06:36:10;3.50;92.20
22173;DHT22;11252;50.596;17.648;2023-02-01T06:38:39;3.60;92.20
22173;DHT22;11252;50.596;17.648;2023-02-01T06:41:06;3.60;92.20
22173;DHT22;11252;50.596;17.648;2023-02-01T06:43:34;3.60;92.20
22173;DHT22;11252;50.596;17.648;2023-02-01T06:46:03;3.60;92.20
22173;DHT22;11252;50.596;17.648;2023-02-01T06:48:31;3.60;92.20
22173;DHT22;11252;50.596;17.648;2023-02-01T06:50:59;3.60;92.20
22173;DHT22;11252;50.596;17.648;2023-02-01T06:53:26;3.60;92.20
22173;DHT22;11252;50.596;17.648;2023-02-01T06:56:03;3.70;92.20
22173;DHT22;11252;50.596;17.648;2023-02-01T06:58:32;3.70;92.20
22173;DHT22;11252;50.596;17.648;2023-02-01T07:01:07;3.70;92.20
22173;DHT22;11252;50.596;17.648;2023-02-01T07:03:35;3.70;92.20
22173;DHT22;11252;50.596;17.648;2023-02-01T07:06:03;3.70;92.20
22173;DHT22;11252;50.596;17.648;2023-02-01T07:08:33;3.80;92.20
22173;DHT22;11252;50.596;17.648;2023-02-01T07:11:03;3.70;92.20
22173;DHT22;11252;50.596;17.648;2023-02-01T07:13:30;3.80;92.20
22173;DHT22;11252;50.596;17.648;2023-02-01T07:15:59;3.90;92.20
22173;DHT22;11252;50.596;17.648;2023-02-01T07:18:27;3.90;92.20
22173;DHT22;11252;50.596;17.648;2023-02-01T07:20:55;3.80;92.20
22173;DHT22;11252;50.596;17.648;2023-02-01T07:23:23;3.80;92.20
22173;DHT22;11252;50.596;17.648;2023-02-01T07:25:59;3.90;92.20
22173;DHT22;11252;50.596;17.648;2023-02-01T07:28:29;3.90;92.20
22173;DHT22;11252;50.596;17.648;2023-02-01T07:31:08;3.90;92.20
22173;DHT22;11252;50.596;17.648;2023-02-01T07:33:36;4.00;92.20
22173;DHT22;11252;50.596;17.648;2023-02-01T07:36:05;4.00;92.20
22173;DHT22;11252;50.596;17.648;2023-02-01T07:38:33;4.00;92.20
22173;DHT22;11252;50.596;17.648;2023-02-01T07:41:03;4.00;92.20
22173;DHT22;11252;50.596;17.648;2023-02-01T07:43:32;4.00;92.20
22173;DHT22;11252;50.596;17.648;2023-02-01T07:46:00;4.00;92.20
22173;DHT22;11252;50.596;17.648;2023-02-01T07:48:28;4.00;92.20
22173;DHT22;11252;50.596;17.648;2023-02-01T07:51:06;4.00;92.20
22173;DHT22;11252;50.596;17.648;2023-02-01T07:53:35;4.00;92.20
22173;DHT22;11252;50.596;17.648;2023-02-01T07:56:03;4.00;92.20
22173;DHT22;11252;50.596;17.648;2023-02-01T07:58:31;4.00;92.20
22173;DHT22;11252;50.596;17.648;2023-02-01T08:00:58;4.00;92.20
22173;DHT22;11252;50.596;17.648;2023-02-01T08:03:44;4.00;92.20
22173;DHT22;11252;50.596;17.648;2023-02-01T08:06:11;4.00;92.20
22173;DHT22;11252;50.596;17.648;2023-02-01T08:08:38;4.00;92.20
22173;DHT22;11252;50.596;17.648;2023-02-01T08:11:07;4.00;92.20
22173;DHT22;11252;50.596;17.648;2023-02-01T08:13:34;4.00;92.20
22173;DHT22;11252;50.596;17.648;2023-02-01T08:16:05;4.00;92.20
22173;DHT22;11252;50.596;17.648;2023-02-01T08:18:33;4.10;92.20
22173;DHT22;11252;50.596;17.648;2023-02-01T08:21:15;4.10;92.20
22173;DHT22;11252;50.596;17.648;2023-02-01T08:23:44;4.10;92.20
22173;DHT22;11252;50.596;17.648;2023-02-01T08:26:19;4.00;92.20
22173;DHT22;11252;50.596;17.648;2023-02-01T08:28:55;4.00;92.20
22173;DHT22;11252;50.596;17.648;2023-02-01T08:31:26;4.00;92.20
22173;DHT22;11252;50.596;17.648;2023-02-01T08:33:59;4.10;92.20
22173;DHT22;11252;50.596;17.648;2023-02-01T08:36:28;4.10;92.20
22173;DHT22;11252;50.596;17.648;2023-02-01T08:38:56;4.00;92.20
22173;DHT22;11252;50.596;17.648;2023-02-01T08:41:27;4.10;92.20
22173;DHT22;11252;50.596;17.648;2023-02-01T08:43:55;4.10;92.20
22173;DHT22;11252;50.596;17.648;2023-02-01T08:46:23;4.20;92.20
22173;DHT22;11252;50.596;17.648;2023-02-01T08:48:51;4.20;92.20
22173;DHT22;11252;50.596;17.648;2023-02-01T08:51:20;4.20;92.20
22173;DHT22;11252;50.596;17.648;2023-02-01T08:53:48;4.20;92.20
22173;DHT22;11252;50.596;17.648;2023-02-01T08:56:17;4.20;92.20
22173;DHT22;11252;50.596;17.648;2023-02-01T08:58:45;4.20;92.20
22173;DHT22;11252;50.596;17.648;2023-02-01T09:01:15;4.30;92.20
22173;DHT22;11252;50.596;17.648;2023-02-01T09:03:44;4.30;92.20
22173;DHT22;11252;50.596;17.648;2023-02-01T09:06:14;4.30;92.20
22173;DHT22;11252;50.596;17.648;2023-02-01T09:08:42;4.30;92.20
22173;DHT22;11252;50.596;17.648;2023-02-01T09:11:15;4.30;92.20
22173;DHT22;11252;50.596;17.648;2023-02-01T09:13:42;4.40;92.20
22173;DHT22;11252;50.596;17.648;2023-02-01T09:16:10;4.40;92.20
22173;DHT22;11252;50.596;17.648;2023-02-01T09:18:38;4.40;92.20
22173;DHT22;11252;50.596;17.648;2023-02-01T09:21:22;4.50;92.20
22173;DHT22;11252;50.596;17.648;2023-02-01T09:23:51;4.50;92.20
22173;DHT22;11252;50.596;17.648;2023-02-01T09:26:18;4.50;92.20
22173;DHT22;11252;50.596;17.648;2023-02-01T09:28:56;4.50;92.20
22173;DHT22;11252;50.596;17.648;2023-02-01T09:31:23;4.60;92.20
22173;DHT22;11252;50.596;17.648;2023-02-01T09:33:51;4.60;92.20
22173;DHT22;11252;50.596;17.648;2023-02-01T09:36:18;4.70;92.20
22173;DHT22;11252;50.596;17.648;2023-02-01T09:38:46;4.70;92.20
22173;DHT22;11252;50.596;17.648;2023-02-01T09:46:43;4.80;92.20
22173;DHT22;11252;50.596;17.648;2023-02-01T09:49:36;4.80;92.20
22173;DHT22;11252;50.596;17.648;2023-02-01T09:52:12;4.80;92.20
22173;DHT22;11252;50.596;17.648;2023-02-01T09:54:47;4.80;92.20
22173;DHT22;11252;50.596;17.648;2023-02-01T09:57:22;4.80;92.20
22173;DHT22;11252;50.596;17.648;2023-02-01T10:00:02;4.90;92.20
22173;DHT22;11252;50.596;17.648;2023-02-01T10:02:35;5.00;92.20
22173;DHT22;11252;50.596;17.648;2023-02-01T10:05:03;5.00;92.20
22173;DHT22;11252;50.596;17.648;2023-02-01T10:07:40;5.10;92.20
22173;DHT22;11252;50.596;17.648;2023-02-01T10:10:49;5.10;92.20
22173;DHT22;11252;50.596;17.648;2023-02-01T10:22:01;5.00;92.20
22173;DHT22;11252;50.596;17.648;2023-02-01T10:24:42;5.00;92.20
22173;DHT22;11252;50.596;17.648;2023-02-01T10:27:29;5.10;92.20
22173;DHT22;11252;50.596;17.648;2023-02-01T10:30:04;5.10;92.20
22173;DHT22;11252;50.596;17.648;2023-02-01T10:32:33;5.10;92.20
22173;DHT22;11252;50.596;17.648;2023-02-01T10:35:12;5.00;92.20
22173;DHT22;11252;50.596;17.648;2023-02-01T10:37:41;5.00;92.20
22173;DHT22;11252;50.596;17.648;2023-02-01T10:40:24;5.00;92.20
22173;DHT22;11252;50.596;17.648;2023-02-01T10:43:00;5.10;92.20
22173;DHT22;11252;50.596;17.648;2023-02-01T10:45:33;5.20;92.20
22173;DHT22;11252;50.596;17.648;2023-02-01T10:48:02;5.10;92.20
22173;DHT22;11252;50.596;17.648;2023-02-01T10:50:35;5.20;92.20
22173;DHT22;11252;50.596;17.648;2023-02-01T10:53:17;5.20;92.20
22173;DHT22;11252;50.596;17.648;2023-02-01T10:58:16;5.30;92.20
22173;DHT22;11252;50.596;17.648;2023-02-01T11:00:52;5.30;92.20
22173;DHT22;11252;50.596;17.648;2023-02-01T11:06:17;5.20;92.20
22173;DHT22;11252;50.596;17.648;2023-02-01T11:08:48;5.20;92.20
22173;DHT22;11252;50.596;17.648;2023-02-01T11:11:15;5.20;92.20
22173;DHT22;11252;50.596;17.648;2023-02-01T11:13:52;5.10;92.20
22173;DHT22;11252;50.596;17.648;2023-02-01T11:16:20;5.10;92.20
22173;DHT22;11252;50.596;17.648;2023-02-01T11:18:53;5.20;92.20
22173;DHT22;11252;50.596;17.648;2023-02-01T11:21:22;5.20;92.20
22173;DHT22;11252;50.596;17.648;2023-02-01T11:23:50;5.30;92.20
22173;DHT22;11252;50.596;17.648;2023-02-01T11:26:21;5.30;92.20
22173;DHT22;11252;50.596;17.648;2023-02-01T11:29:03;5.30;92.20
22173;DHT22;11252;50.596;17.648;2023-02-01T11:31:32;5.50;92.20
22173;DHT22;11252;50.596;17.648;2023-02-01T11:34:35;5.50;92.20
22173;DHT22;11252;50.596;17.648;2023-02-01T11:37:03;5.60;92.20
22173;DHT22;11252;50.596;17.648;2023-02-01T11:39:33;5.60;92.20
22173;DHT22;11252;50.596;17.648;2023-02-01T11:42:15;5.40;92.20
22173;DHT22;11252;50.596;17.648;2023-02-01T11:44:45;5.40;92.20
22173;DHT22;11252;50.596;17.648;2023-02-01T11:47:29;5.40;92.20
22173;DHT22;11252;50.596;17.648;2023-02-01T11:50:05;5.40;92.20
22173;DHT22;11252;50.596;17.648;2023-02-01T12:06:51;5.30;92.20
22173;DHT22;11252;50.596;17.648;2023-02-01T12:10:01;5.00;92.20
22173;DHT22;11252;50.596;17.648;2023-02-01T12:12:44;4.80;92.20
22173;DHT22;11252;50.596;17.648;2023-02-01T12:15:27;4.70;92.20
22173;DHT22;11252;50.596;17.648;2023-02-01T12:25:55;3.80;92.20
22173;DHT22;11252;50.596;17.648;2023-02-01T12:31:17;3.80;92.20
22173;DHT22;11252;50.596;17.648;2023-02-01T12:36:51;3.70;92.20
22173;DHT22;11252;50.596;17.648;2023-02-01T12:42:32;3.80;92.20
22173;DHT22;11252;50.596;17.648;2023-02-01T12:45:29;3.70;92.20
22173;DHT22;11252;50.596;17.648;2023-02-01T12:48:12;3.60;92.20
22173;DHT22;11252;50.596;17.648;2023-02-01T12:50:51;3.60;92.20
22173;DHT22;11252;50.596;17.648;2023-02-01T12:56:03;3.50;92.20
22173;DHT22;11252;50.596;17.648;2023-02-01T13:01:09;3.50;92.20
22173;DHT22;11252;50.596;17.648;2023-02-01T13:04:01;3.50;92.20
22173;DHT22;11252;50.596;17.648;2023-02-01T13:06:37;3.50;92.20
22173;DHT22;11252;50.596;17.648;2023-02-01T13:09:27;3.50;92.20
22173;DHT22;11252;50.596;17.648;2023-02-01T13:11:59;3.60;92.20
22173;DHT22;11252;50.596;17.648;2023-02-01T13:14:43;3.60;92.20
22173;DHT22;11252;50.596;17.648;2023-02-01T13:17:22;3.60;92.20
22173;DHT22;11252;50.596;17.648;2023-02-01T13:20:04;3.70;92.20
22173;DHT22;11252;50.596;17.648;2023-02-01T13:22:40;3.80;92.20
22173;DHT22;11252;50.596;17.648;2023-02-01T13:27:38;3.90;92.20
22173;DHT22;11252;50.596;17.648;2023-02-01T13:30:24;4.00;92.20
22173;DHT22;11252;50.596;17.648;2023-02-01T13:33:11;4.00;92.20
22173;DHT22;11252;50.596;17.648;2023-02-01T13:38:48;4.10;92.20
22173;DHT22;11252;50.596;17.648;2023-02-01T13:41:30;4.10;92.20
22173;DHT22;11252;50.596;17.648;2023-02-01T13:44:03;4.10;92.20
22173;DHT22;11252;50.596;17.648;2023-02-01T13:46:44;4.10;92.20
22173;DHT22;11252;50.596;17.648;2023-02-01T13:49:29;4.10;92.20
22173;DHT22;11252;50.596;17.648;2023-02-01T13:51:58;4.20;92.20
22173;DHT22;11252;50.596;17.648;2023-02-01T13:54:29;4.20;92.20
22173;DHT22;11252;50.596;17.648;2023-02-01T13:56:59;4.20;92.20
22173;DHT22;11252;50.596;17.648;2023-02-01T13:59:49;4.20;92.20
22173;DHT22;11252;50.596;17.648;2023-02-01T14:05:04;4.20;92.20
22173;DHT22;11252;50.596;17.648;2023-02-01T14:07:32;4.20;92.20
22173;DHT22;11252;50.596;17.648;2023-02-01T14:13:12;4.30;92.20
22173;DHT22;11252;50.596;17.648;2023-02-01T14:21:27;4.20;92.20
22173;DHT22;11252;50.596;17.648;2023-02-01T14:27:34;4.10;92.20
22173;DHT22;11252;50.596;17.648;2023-02-01T14:29:50;4.10;92.20
22173;DHT22;11252;50.596;17.648;2023-02-01T14:32:23;4.10;92.20
22173;DHT22;11252;50.596;17.648;2023-02-01T14:34:54;4.20;92.20
22173;DHT22;11252;50.596;17.648;2023-02-01T14:47:53;4.60;92.20
22173;DHT22;11252;50.596;17.648;2023-02-01T15:00:58;4.70;92.20
22173;DHT22;11252;50.596;17.648;2023-02-01T15:06:04;4.80;92.20
22173;DHT22;11252;50.596;17.648;2023-02-01T15:08:37;4.70;92.20
22173;DHT22;11252;50.596;17.648;2023-02-01T15:11:11;4.60;92.20
22173;DHT22;11252;50.596;17.648;2023-02-01T15:13:40;4.60;92.20
22173;DHT22;11252;50.596;17.648;2023-02-01T15:16:15;4.60;92.20
22173;DHT22;11252;50.596;17.648;2023-02-01T15:18:43;4.60;92.20
22173;DHT22;11252;50.596;17.648;2023-02-01T15:21:22;4.60;92.20
22173;DHT22;11252;50.596;17.648;2023-02-01T15:24:10;4.60;92.20
22173;DHT22;11252;50.596;17.648;2023-02-01T15:26:38;4.60;92.20
22173;DHT22;11252;50.596;17.648;2023-02-01T15:29:10;4.60;92.20
22173;DHT22;11252;50.596;17.648;2023-02-01T15:31:45;4.60;92.20
22173;DHT22;11252;50.596;17.648;2023-02-01T15:34:13;4.60;92.20
22173;DHT22;11252;50.596;17.648;2023-02-01T15:36:41;4.50;92.20
22173;DHT22;11252;50.596;17.648;2023-02-01T15:39:27;4.30;92.20
22173;DHT22;11252;50.596;17.648;2023-02-01T15:42:00;4.20;92.20
22173;DHT22;11252;50.596;17.648;2023-02-01T15:44:41;4.10;92.20
22173;DHT22;11252;50.596;17.648;2023-02-01T15:47:29;4.10;92.20
22173;DHT22;11252;50.596;17.648;2023-02-01T15:49:59;4.00;92.20
22173;DHT22;11252;50.596;17.648;2023-02-01T15:52:36;3.90;92.20
22173;DHT22;11252;50.596;17.648;2023-02-01T15:55:18;3.90;92.20
22173;DHT22;11252;50.596;17.648;2023-02-01T15:57:47;3.80;92.20
22173;DHT22;11252;50.596;17.648;2023-02-01T16:00:30;3.70;92.20
22173;DHT22;11252;50.596;17.648;2023-02-01T16:03:05;3.80;92.20
22173;DHT22;11252;50.596;17.648;2023-02-01T16:05:34;3.80;92.20
22173;DHT22;11252;50.596;17.648;2023-02-01T16:08:15;3.80;92.20
22173;DHT22;11252;50.596;17.648;2023-02-01T16:10:45;3.90;92.20
22173;DHT22;11252;50.596;17.648;2023-02-01T16:13:15;4.00;92.20
22173;DHT22;11252;50.596;17.648;2023-02-01T16:15:43;4.10;92.20
22173;DHT22;11252;50.596;17.648;2023-02-01T16:18:12;4.10;92.20
22173;DHT22;11252;50.596;17.648;2023-02-01T16:20:43;4.10;92.20
22173;DHT22;11252;50.596;17.648;2023-02-01T16:23:11;4.10;92.20
22173;DHT22;11252;50.596;17.648;2023-02-01T16:25:39;4.10;92.20
22173;DHT22;11252;50.596;17.648;2023-02-01T16:28:07;4.10;92.20
22173;DHT22;11252;50.596;17.648;2023-02-01T16:30:35;4.10;92.20
22173;DHT22;11252;50.596;17.648;2023-02-01T16:33:03;4.10;92.20
22173;DHT22;11252;50.596;17.648;2023-02-01T16:35:37;4.10;92.20
22173;DHT22;11252;50.596;17.648;2023-02-01T16:38:08;3.90;92.20
22173;DHT22;11252;50.596;17.648;2023-02-01T16:40:40;3.90;92.20
22173;DHT22;11252;50.596;17.648;2023-02-01T16:43:20;3.90;92.20
22173;DHT22;11252;50.596;17.648;2023-02-01T16:45:49;3.90;92.20
22173;DHT22;11252;50.596;17.648;2023-02-01T16:50:53;3.90;92.20
22173;DHT22;11252;50.596;17.648;2023-02-01T16:53:22;3.90;92.20
22173;DHT22;11252;50.596;17.648;2023-02-01T16:55:50;3.80;92.20
22173;DHT22;11252;50.596;17.648;2023-02-01T16:58:20;3.90;92.20
22173;DHT22;11252;50.596;17.648;2023-02-01T17:00:48;3.80;92.20
22173;DHT22;11252;50.596;17.648;2023-02-01T17:03:15;3.90;92.20
22173;DHT22;11252;50.596;17.648;2023-02-01T17:05:49;3.90;92.20
22173;DHT22;11252;50.596;17.648;2023-02-01T17:08:24;3.90;92.20
22173;DHT22;11252;50.596;17.648;2023-02-01T17:10:52;3.90;92.20
22173;DHT22;11252;50.596;17.648;2023-02-01T17:13:19;3.90;92.20
22173;DHT22;11252;50.596;17.648;2023-02-01T17:15:54;3.90;92.20
22173;DHT22;11252;50.596;17.648;2023-02-01T17:18:22;3.90;92.20
22173;DHT22;11252;50.596;17.648;2023-02-01T17:20:49;3.90;92.20
22173;DHT22;11252;50.596;17.648;2023-02-01T17:23:19;3.80;92.20
22173;DHT22;11252;50.596;17.648;2023-02-01T17:25:47;3.80;92.20
22173;DHT22;11252;50.596;17.648;2023-02-01T17:28:15;3.80;92.20
22173;DHT22;11252;50.596;17.648;2023-02-01T17:30:42;3.80;92.20
22173;DHT22;11252;50.596;17.648;2023-02-01T17:35:54;3.80;92.20
22173;DHT22;11252;50.596;17.648;2023-02-01T17:38:23;3.90;92.20
22173;DHT22;11252;50.596;17.648;2023-02-01T17:40:50;3.80;92.20
22173;DHT22;11252;50.596;17.648;2023-02-01T17:43:21;3.80;92.20
22173;DHT22;11252;50.596;17.648;2023-02-01T17:45:52;3.80;92.20
22173;DHT22;11252;50.596;17.648;2023-02-01T17:48:20;3.90;92.20
22173;DHT22;11252;50.596;17.648;2023-02-01T17:50:50;3.90;92.20
22173;DHT22;11252;50.596;17.648;2023-02-01T17:53:26;3.90;92.20
22173;DHT22;11252;50.596;17.648;2023-02-01T17:55:54;3.90;92.20
22173;DHT22;11252;50.596;17.648;2023-02-01T17:58:25;4.00;92.20
22173;DHT22;11252;50.596;17.648;2023-02-01T18:00:59;4.10;92.20
22173;DHT22;11252;50.596;17.648;2023-02-01T18:03:28;4.00;92.20
22173;DHT22;11252;50.596;17.648;2023-02-01T18:05:57;3.90;92.20
22173;DHT22;11252;50.596;17.648;2023-02-01T18:08:27;3.90;92.20
22173;DHT22;11252;50.596;17.648;2023-02-01T18:10:56;4.00;92.20
22173;DHT22;11252;50.596;17.648;2023-02-01T18:13:28;4.00;92.20
22173;DHT22;11252;50.596;17.648;2023-02-01T18:15:55;4.10;92.20
22173;DHT22;11252;50.596;17.648;2023-02-01T18:18:25;4.20;92.20
22173;DHT22;11252;50.596;17.648;2023-02-01T18:20:52;4.10;92.20
22173;DHT22;11252;50.596;17.648;2023-02-01T18:23:21;4.10;92.20